sensor_id;sensor_type;location;lat;lon;timestamp;pressure;altitude;pressure_sealevel;temperature;humidity
10127;BME280;13080;42.608;23.362;2024-03-25T00:02:04;151608.72;;;1.99;100.00
10127;BME280;13080;42.608;23.362;2024-03-25T00:04:30;151599.72;;;1.96;100.00
10127;BME280;13080;42.608;23.362;2024-03-25T00:06:57;151606.16;;;1.98;100.00
10127;BME280;13080;42.608;23.362;2024-03-25T00:09:25;151613.88;;;2.01;100.00
10127;BME280;13080;42.608;23.362;2024-03-25T00:11:52;151598.44;;;1.95;100.00
10127;BME280;13080;42.608;23.362;2024-03-25T00:14:19;151619.06;;;2.03;100.00
10127;BME280;13080;42.608;23.362;2024-03-25T00:16:46;151558.41;;;1.79;100.00
10127;BME280;13080;42.608;23.362;2024-03-25T00:19:12;151551.97;;;1.77;100.00
10127;BME280;13080;42.608;23.362;2024-03-25T00:21:39;151528.78;;;1.67;100.00
10127;BME280;13080;42.608;23.362;2024-03-25T00:24:05;151527.50;;;1.67;100.00
10127;BME280;13080;42.608;23.362;2024-03-25T00:26:33;151518.44;;;1.63;100.00
10127;BME280;13080;42.608;23.362;2024-03-25T00:28:59;151504.28;;;1.58;100.00
10127;BME280;13080;42.608;23.362;2024-03-25T00:31:26;151503.00;;;1.57;100.00
10127;BME280;13080;42.608;23.362;2024-03-25T00:33:52;151513.28;;;1.61;100.00
10127;BME280;13080;42.608;23.362;2024-03-25T00:36:19;151503.00;;;1.57;100.00
10127;BME280;13080;42.608;23.362;2024-03-25T00:38:45;151495.25;;;1.54;100.00
10127;BME280;13080;42.608;23.362;2024-03-25T00:41:11;151522.31;;;1.65;100.00
10127;BME280;13080;42.608;23.362;2024-03-25T00:43:39;151518.44;;;1.63;100.00
10127;BME280;13080;42.608;23.362;2024-03-25T00:46:06;151527.50;;;1.67;100.00
10127;BME280;13080;42.608;23.362;2024-03-25T00:48:32;151517.16;;;1.63;100.00
10127;BME280;13080;42.608;23.362;2024-03-25T00:50:58;151541.69;;;1.73;100.00
10127;BME280;13080;42.608;23.362;2024-03-25T00:53:24;151549.41;;;1.76;100.00
10127;BME280;13080;42.608;23.362;2024-03-25T00:55:51;151549.41;;;1.76;100.00
10127;BME280;13080;42.608;23.362;2024-03-25T00:58:17;151551.97;;;1.77;100.00
10127;BME280;13080;42.608;23.362;2024-03-25T01:00:46;151546.81;;;1.75;100.00
10127;BME280;13080;42.608;23.362;2024-03-25T01:03:12;151555.84;;;1.78;100.00
10127;BME280;13080;42.608;23.362;2024-03-25T01:05:39;151524.94;;;1.66;100.00
10127;BME280;13080;42.608;23.362;2024-03-25T01:08:05;151519.78;;;1.64;100.00
10127;BME280;13080;42.608;23.362;2024-03-25T01:10:36;151499.13;;;1.56;100.00
10127;BME280;13080;42.608;23.362;2024-03-25T01:13:02;151482.34;;;1.49;100.00
10127;BME280;13080;42.608;23.362;2024-03-25T01:15:29;151497.84;;;1.55;100.00
10127;BME280;13080;42.608;23.362;2024-03-25T01:17:56;151513.28;;;1.61;100.00
10127;BME280;13080;42.608;23.362;2024-03-25T01:20:23;151501.69;;;1.57;100.00
10127;BME280;13080;42.608;23.362;2024-03-25T01:22:49;151486.25;;;1.51;100.00
10127;BME280;13080;42.608;23.362;2024-03-25T01:25:16;151477.19;;;1.47;100.00
10127;BME280;13080;42.608;23.362;2024-03-25T01:27:41;151500.41;;;1.56;100.00
10127;BME280;13080;42.608;23.362;2024-03-25T01:30:09;151522.31;;;1.65;100.00
10127;BME280;13080;42.608;23.362;2024-03-25T01:32:35;151541.69;;;1.73;100.00
10127;BME280;13080;42.608;23.362;2024-03-25T01:35:04;151555.84;;;1.78;100.00
10127;BME280;13080;42.608;23.362;2024-03-25T01:37:30;151539.09;;;1.72;100.00
10127;BME280;13080;42.608;23.362;2024-03-25T01:39:56;151573.91;;;1.85;100.00
10127;BME280;13080;42.608;23.362;2024-03-25T01:42:22;151580.34;;;1.88;100.00
10127;BME280;13080;42.608;23.362;2024-03-25T01:44:49;151571.34;;;1.84;100.00
10127;BME280;13080;42.608;23.362;2024-03-25T01:47:15;151546.81;;;1.75;100.00
10127;BME280;13080;42.608;23.362;2024-03-25T01:49:42;151584.22;;;1.90;100.00
10127;BME280;13080;42.608;23.362;2024-03-25T01:52:09;151559.75;;;1.80;100.00
10127;BME280;13080;42.608;23.362;2024-03-25T01:54:36;151580.34;;;1.88;100.00
10127;BME280;13080;42.608;23.362;2024-03-25T01:57:03;151579.06;;;1.87;100.00
10127;BME280;13080;42.608;23.362;2024-03-25T01:59:30;151585.50;;;1.90;100.00
10127;BME280;13080;42.608;23.362;2024-03-25T02:01:57;151588.13;;;1.91;100.00
10127;BME280;13080;42.608;23.362;2024-03-25T02:04:24;151642.25;;;2.13;100.00
10127;BME280;13080;42.608;23.362;2024-03-25T02:06:51;151656.47;;;2.18;100.00
10127;BME280;13080;42.608;23.362;2024-03-25T02:09:20;151625.50;;;2.06;100.00
10127;BME280;13080;42.608;23.362;2024-03-25T02:11:46;151628.09;;;2.07;100.00
10127;BME280;13080;42.608;23.362;2024-03-25T02:14:13;151643.59;;;2.13;100.00
10127;BME280;13080;42.608;23.362;2024-03-25T02:16:39;151603.56;;;1.97;100.00
10127;BME280;13080;42.608;23.362;2024-03-25T02:19:06;151598.44;;;1.95;100.00
10127;BME280;13080;42.608;23.362;2024-03-25T02:21:33;151558.41;;;1.79;100.00
10127;BME280;13080;42.608;23.362;2024-03-25T02:24:00;151526.22;;;1.66;100.00
10127;BME280;13080;42.608;23.362;2024-03-25T02:26:31;151496.56;;;1.55;100.00
10127;BME280;13080;42.608;23.362;2024-03-25T02:28:58;151468.16;;;1.43;100.00
10127;BME280;13080;42.608;23.362;2024-03-25T02:31:24;151443.66;;;1.34;100.00
10127;BME280;13080;42.608;23.362;2024-03-25T02:33:51;151424.34;;;1.26;100.00
10127;BME280;13080;42.608;23.362;2024-03-25T02:36:17;151423.03;;;1.25;100.00
10127;BME280;13080;42.608;23.362;2024-03-25T02:38:44;151435.94;;;1.31;100.00
10127;BME280;13080;42.608;23.362;2024-03-25T02:41:10;151429.50;;;1.28;100.00
10127;BME280;13080;42.608;23.362;2024-03-25T02:43:38;151430.78;;;1.29;100.00
10127;BME280;13080;42.608;23.362;2024-03-25T02:46:04;151432.06;;;1.29;100.00
10127;BME280;13080;42.608;23.362;2024-03-25T02:48:31;151461.72;;;1.41;100.00
10127;BME280;13080;42.608;23.362;2024-03-25T02:50:57;151446.28;;;1.35;100.00
10127;BME280;13080;42.608;23.362;2024-03-25T02:53:24;151439.78;;;1.32;100.00
10127;BME280;13080;42.608;23.362;2024-03-25T02:55:49;151452.72;;;1.37;100.00
10127;BME280;13080;42.608;23.362;2024-03-25T02:58:16;151457.88;;;1.39;100.00
10127;BME280;13080;42.608;23.362;2024-03-25T03:00:44;151450.13;;;1.36;100.00
10127;BME280;13080;42.608;23.362;2024-03-25T03:03:11;151460.44;;;1.40;100.00
10127;BME280;13080;42.608;23.362;2024-03-25T03:05:37;151454.00;;;1.38;100.00
10127;BME280;13080;42.608;23.362;2024-03-25T03:08:04;151437.22;;;1.31;100.00
10127;BME280;13080;42.608;23.362;2024-03-25T03:10:30;151424.34;;;1.26;100.00
10127;BME280;13080;42.608;23.362;2024-03-25T03:12:57;151426.91;;;1.27;100.00
10127;BME280;13080;42.608;23.362;2024-03-25T03:15:23;151412.75;;;1.21;100.00
10127;BME280;13080;42.608;23.362;2024-03-25T03:17:51;151399.81;;;1.16;100.00
10127;BME280;13080;42.608;23.362;2024-03-25T03:20:17;151388.22;;;1.12;100.00
10127;BME280;13080;42.608;23.362;2024-03-25T03:22:44;151392.13;;;1.13;100.00
10127;BME280;13080;42.608;23.362;2024-03-25T03:25:10;151385.69;;;1.11;100.00
10127;BME280;13080;42.608;23.362;2024-03-25T03:27:37;151385.69;;;1.11;100.00
10127;BME280;13080;42.608;23.362;2024-03-25T03:30:03;151388.22;;;1.12;100.00
10127;BME280;13080;42.608;23.362;2024-03-25T03:32:30;151393.38;;;1.14;100.00
10127;BME280;13080;42.608;23.362;2024-03-25T03:34:57;151397.28;;;1.15;100.00
10127;BME280;13080;42.608;23.362;2024-03-25T03:37:24;151396.00;;;1.15;100.00
10127;BME280;13080;42.608;23.362;2024-03-25T03:39:50;151425.63;;;1.27;100.00
10127;BME280;13080;42.608;23.362;2024-03-25T03:42:17;151454.00;;;1.38;100.00
10127;BME280;13080;42.608;23.362;2024-03-25T03:44:43;151447.56;;;1.35;100.00
10127;BME280;13080;42.608;23.362;2024-03-25T03:47:10;151477.19;;;1.47;100.00
10127;BME280;13080;42.608;23.362;2024-03-25T03:49:36;151466.88;;;1.43;100.00
10127;BME280;13080;42.608;23.362;2024-03-25T03:52:05;151472.03;;;1.45;100.00
10127;BME280;13080;42.608;23.362;2024-03-25T03:54:30;151469.47;;;1.44;100.00
10127;BME280;13080;42.608;23.362;2024-03-25T03:56:57;151470.75;;;1.44;100.00
10127;BME280;13080;42.608;23.362;2024-03-25T03:59:23;151473.31;;;1.45;100.00
10127;BME280;13080;42.608;23.362;2024-03-25T04:01:50;151455.28;;;1.38;100.00
10127;BME280;13080;42.608;23.362;2024-03-25T04:04:16;151463.03;;;1.41;100.00
10127;BME280;13080;42.608;23.362;2024-03-25T04:06:43;151461.72;;;1.41;100.00
10127;BME280;13080;42.608;23.362;2024-03-25T04:09:10;151455.28;;;1.38;100.00
10127;BME280;13080;42.608;23.362;2024-03-25T04:11:37;151448.81;;;1.36;100.00
10127;BME280;13080;42.608;23.362;2024-03-25T04:14:03;151447.56;;;1.35;100.00
10127;BME280;13080;42.608;23.362;2024-03-25T04:16:30;151442.41;;;1.33;100.00
10127;BME280;13080;42.608;23.362;2024-03-25T04:18:56;151450.13;;;1.36;100.00
10127;BME280;13080;42.608;23.362;2024-03-25T04:21:23;151450.13;;;1.36;100.00
10127;BME280;13080;42.608;23.362;2024-03-25T04:23:49;151411.44;;;1.21;100.00
10127;BME280;13080;42.608;23.362;2024-03-25T04:26:17;151414.03;;;1.22;100.00
10127;BME280;13080;42.608;23.362;2024-03-25T04:28:43;151426.91;;;1.27;100.00
10127;BME280;13080;42.608;23.362;2024-03-25T04:31:10;151415.31;;;1.22;100.00
10127;BME280;13080;42.608;23.362;2024-03-25T04:33:36;151416.59;;;1.23;100.00
10127;BME280;13080;42.608;23.362;2024-03-25T04:36:03;151425.63;;;1.27;100.00
10127;BME280;13080;42.608;23.362;2024-03-25T04:38:29;151432.06;;;1.29;100.00
10127;BME280;13080;42.608;23.362;2024-03-25T04:40:55;151425.63;;;1.27;100.00
10127;BME280;13080;42.608;23.362;2024-03-25T04:43:22;151425.63;;;1.27;100.00
10127;BME280;13080;42.608;23.362;2024-03-25T04:45:48;151433.34;;;1.30;100.00
10127;BME280;13080;42.608;23.362;2024-03-25T04:48:14;151443.66;;;1.34;100.00
10127;BME280;13080;42.608;23.362;2024-03-25T04:50:40;151428.19;;;1.28;100.00
10127;BME280;13080;42.608;23.362;2024-03-25T04:53:06;151429.50;;;1.28;100.00
10127;BME280;13080;42.608;23.362;2024-03-25T04:55:31;151433.34;;;1.30;100.00
10127;BME280;13080;42.608;23.362;2024-03-25T04:57:57;151433.34;;;1.30;100.00
10127;BME280;13080;42.608;23.362;2024-03-25T05:00:25;151429.50;;;1.28;100.00
10127;BME280;13080;42.608;23.362;2024-03-25T05:02:50;151432.06;;;1.29;100.00
10127;BME280;13080;42.608;23.362;2024-03-25T05:05:16;151447.56;;;1.35;100.00
10127;BME280;13080;42.608;23.362;2024-03-25T05:07:42;151454.00;;;1.38;100.00
10127;BME280;13080;42.608;23.362;2024-03-25T05:10:09;151437.22;;;1.31;100.00
10127;BME280;13080;42.608;23.362;2024-03-25T05:12:34;151442.41;;;1.33;100.00
10127;BME280;13080;42.608;23.362;2024-03-25T05:15:00;151452.72;;;1.37;100.00
10127;BME280;13080;42.608;23.362;2024-03-25T05:17:27;151437.22;;;1.31;100.00
10127;BME280;13080;42.608;23.362;2024-03-25T05:19:53;151459.16;;;1.40;100.00
10127;BME280;13080;42.608;23.362;2024-03-25T05:22:19;151461.72;;;1.41;100.00
10127;BME280;13080;42.608;23.362;2024-03-25T05:24:45;151475.91;;;1.47;100.00
10127;BME280;13080;42.608;23.362;2024-03-25T05:27:11;151482.34;;;1.49;100.00
10127;BME280;13080;42.608;23.362;2024-03-25T05:29:37;151488.78;;;1.52;100.00
10127;BME280;13080;42.608;23.362;2024-03-25T05:32:03;151514.59;;;1.62;100.00
10127;BME280;13080;42.608;23.362;2024-03-25T05:34:30;151522.31;;;1.65;100.00
10127;BME280;13080;42.608;23.362;2024-03-25T05:36:57;151533.94;;;1.70;98.84
10127;BME280;13080;42.608;23.362;2024-03-25T05:39:23;151519.78;;;1.64;98.62
10127;BME280;13080;42.608;23.362;2024-03-25T05:41:49;151533.94;;;1.70;97.98
10127;BME280;13080;42.608;23.362;2024-03-25T05:44:14;151542.97;;;1.73;98.37
10127;BME280;13080;42.608;23.362;2024-03-25T05:46:40;151544.25;;;1.74;96.96
10127;BME280;13080;42.608;23.362;2024-03-25T05:49:06;151568.75;;;1.83;94.47
10127;BME280;13080;42.608;23.362;2024-03-25T05:51:34;151572.63;;;1.85;94.90
10127;BME280;13080;42.608;23.362;2024-03-25T05:54:00;151566.19;;;1.82;94.70
10127;BME280;13080;42.608;23.362;2024-03-25T05:56:26;151564.91;;;1.82;95.91
10127;BME280;13080;42.608;23.362;2024-03-25T05:58:52;151573.91;;;1.85;92.67
10127;BME280;13080;42.608;23.362;2024-03-25T06:01:17;151585.50;;;1.90;95.20
10127;BME280;13080;42.608;23.362;2024-03-25T06:03:43;151599.72;;;1.96;95.24
10127;BME280;13080;42.608;23.362;2024-03-25T06:06:09;151613.88;;;2.01;93.37
10127;BME280;13080;42.608;23.362;2024-03-25T06:08:36;151607.44;;;1.99;94.57
10127;BME280;13080;42.608;23.362;2024-03-25T06:11:03;151616.50;;;2.02;93.27
10127;BME280;13080;42.608;23.362;2024-03-25T06:13:29;151602.28;;;1.97;93.23
10127;BME280;13080;42.608;23.362;2024-03-25T06:15:55;151562.31;;;1.81;92.54
10127;BME280;13080;42.608;23.362;2024-03-25T06:18:21;151568.75;;;1.83;92.67
10127;BME280;13080;42.608;23.362;2024-03-25T06:20:47;151595.84;;;1.94;93.04
10127;BME280;13080;42.608;23.362;2024-03-25T06:23:22;151584.22;;;1.90;93.11
10127;BME280;13080;42.608;23.362;2024-03-25T06:25:50;151553.31;;;1.77;92.39
10127;BME280;13080;42.608;23.362;2024-03-25T06:28:16;151566.19;;;1.82;91.80
10127;BME280;13080;42.608;23.362;2024-03-25T06:30:42;151545.53;;;1.74;91.26
10127;BME280;13080;42.608;23.362;2024-03-25T06:33:26;151563.56;;;1.81;90.55
10127;BME280;13080;42.608;23.362;2024-03-25T06:36:11;151577.78;;;1.87;90.83
10127;BME280;13080;42.608;23.362;2024-03-25T06:38:37;151603.56;;;1.97;88.59
10127;BME280;13080;42.608;23.362;2024-03-25T06:41:04;151591.94;;;1.93;87.39
10127;BME280;13080;42.608;23.362;2024-03-25T06:43:30;151595.84;;;1.94;88.40
10127;BME280;13080;42.608;23.362;2024-03-25T06:45:56;151612.59;;;2.01;88.36
10127;BME280;13080;42.608;23.362;2024-03-25T06:48:22;151642.25;;;2.13;88.90
10127;BME280;13080;42.608;23.362;2024-03-25T06:50:54;151661.66;;;2.20;89.23
10127;BME280;13080;42.608;23.362;2024-03-25T06:53:21;151699.03;;;2.35;89.51
10127;BME280;13080;42.608;23.362;2024-03-25T06:55:53;151728.75;;;2.47;87.28
10127;BME280;13080;42.608;23.362;2024-03-25T06:58:21;151764.88;;;2.61;89.24
10127;BME280;13080;42.608;23.362;2024-03-25T07:00:47;151798.41;;;2.75;87.37
10127;BME280;13080;42.608;23.362;2024-03-25T07:03:14;151852.66;;;2.96;85.57
10127;BME280;13080;42.608;23.362;2024-03-25T07:05:40;151851.34;;;2.96;86.56
10127;BME280;13080;42.608;23.362;2024-03-25T07:08:06;151857.78;;;2.98;86.19
10127;BME280;13080;42.608;23.362;2024-03-25T07:10:31;151893.97;;;3.12;86.45
10127;BME280;13080;42.608;23.362;2024-03-25T07:12:57;151941.72;;;3.31;86.24
10127;BME280;13080;42.608;23.362;2024-03-25T07:15:25;151957.22;;;3.38;83.84
10127;BME280;13080;42.608;23.362;2024-03-25T07:17:50;151954.66;;;3.37;84.10
10127;BME280;13080;42.608;23.362;2024-03-25T07:20:16;151980.47;;;3.47;84.92
10127;BME280;13080;42.608;23.362;2024-03-25T07:22:42;152042.47;;;3.71;83.01
10127;BME280;13080;42.608;23.362;2024-03-25T07:25:08;152072.16;;;3.83;82.06
10127;BME280;13080;42.608;23.362;2024-03-25T07:27:34;152024.38;;;3.64;80.82
10127;BME280;13080;42.608;23.362;2024-03-25T07:30:00;152048.91;;;3.74;81.41
10127;BME280;13080;42.608;23.362;2024-03-25T07:32:28;152012.75;;;3.60;79.08
10127;BME280;13080;42.608;23.362;2024-03-25T07:34:53;152046.34;;;3.73;79.90
10127;BME280;13080;42.608;23.362;2024-03-25T07:37:19;152087.69;;;3.89;77.96
10127;BME280;13080;42.608;23.362;2024-03-25T07:39:46;152088.97;;;3.90;78.54
10127;BME280;13080;42.608;23.362;2024-03-25T07:42:12;152143.25;;;4.11;79.56
10127;BME280;13080;42.608;23.362;2024-03-25T07:44:38;152120.00;;;4.02;78.31
10127;BME280;13080;42.608;23.362;2024-03-25T07:47:04;152126.44;;;4.05;76.86
10127;BME280;13080;42.608;23.362;2024-03-25T07:49:31;152144.53;;;4.12;75.78
10127;BME280;13080;42.608;23.362;2024-03-25T07:51:57;152153.59;;;4.15;77.78
10127;BME280;13080;42.608;23.362;2024-03-25T07:54:23;152167.78;;;4.21;77.58
10127;BME280;13080;42.608;23.362;2024-03-25T07:56:49;152197.53;;;4.33;76.57
10127;BME280;13080;42.608;23.362;2024-03-25T07:59:15;152224.66;;;4.44;75.61
10127;BME280;13080;42.608;23.362;2024-03-25T08:01:41;152167.78;;;4.21;74.32
10127;BME280;13080;42.608;23.362;2024-03-25T08:04:07;152178.13;;;4.25;76.05
10127;BME280;13080;42.608;23.362;2024-03-25T08:06:34;152241.44;;;4.50;76.07
10127;BME280;13080;42.608;23.362;2024-03-25T08:09:00;152275.06;;;4.64;74.14
10127;BME280;13080;42.608;23.362;2024-03-25T08:11:26;152299.66;;;4.73;74.68
10127;BME280;13080;42.608;23.362;2024-03-25T08:13:52;152343.59;;;4.91;75.24
10127;BME280;13080;42.608;23.362;2024-03-25T08:16:18;152396.63;;;5.12;73.22
10127;BME280;13080;42.608;23.362;2024-03-25T08:18:44;152418.63;;;5.20;69.69
10127;BME280;13080;42.608;23.362;2024-03-25T08:21:10;152351.38;;;4.94;71.69
10127;BME280;13080;42.608;23.362;2024-03-25T08:23:37;152312.56;;;4.78;72.59
10127;BME280;13080;42.608;23.362;2024-03-25T08:26:03;152361.72;;;4.98;73.79
10127;BME280;13080;42.608;23.362;2024-03-25T08:28:29;152392.72;;;5.10;72.27
10127;BME280;13080;42.608;23.362;2024-03-25T08:30:55;152440.63;;;5.29;74.15
10127;BME280;13080;42.608;23.362;2024-03-25T08:33:21;152489.72;;;5.49;73.04
10127;BME280;13080;42.608;23.362;2024-03-25T08:35:48;152514.34;;;5.58;72.95
10127;BME280;13080;42.608;23.362;2024-03-25T08:38:14;152510.44;;;5.57;72.80
10127;BME280;13080;42.608;23.362;2024-03-25T08:40:41;152516.91;;;5.59;72.81
10127;BME280;13080;42.608;23.362;2024-03-25T08:43:07;152535.03;;;5.67;74.93
10127;BME280;13080;42.608;23.362;2024-03-25T08:45:33;152571.28;;;5.81;72.35
10127;BME280;13080;42.608;23.362;2024-03-25T08:47:58;152612.72;;;5.97;72.20
10127;BME280;13080;42.608;23.362;2024-03-25T08:50:24;152664.47;;;6.18;73.08
10127;BME280;13080;42.608;23.362;2024-03-25T08:52:50;152598.41;;;5.92;68.95
10127;BME280;13080;42.608;23.362;2024-03-25T08:55:16;152584.19;;;5.86;72.53
10127;BME280;13080;42.608;23.362;2024-03-25T08:57:43;152557.03;;;5.75;68.59
10127;BME280;13080;42.608;23.362;2024-03-25T09:00:10;152577.75;;;5.83;71.73
10127;BME280;13080;42.608;23.362;2024-03-25T09:02:36;152630.84;;;6.04;72.02
10127;BME280;13080;42.608;23.362;2024-03-25T09:05:01;152615.28;;;5.98;71.83
10127;BME280;13080;42.608;23.362;2024-03-25T09:07:28;152636.00;;;6.07;71.09
10127;BME280;13080;42.608;23.362;2024-03-25T09:09:54;152674.84;;;6.22;70.35
10127;BME280;13080;42.608;23.362;2024-03-25T09:12:37;152720.16;;;6.40;72.23
10127;BME280;13080;42.608;23.362;2024-03-25T09:15:05;152725.34;;;6.42;66.97
10127;BME280;13080;42.608;23.362;2024-03-25T09:17:31;152764.19;;;6.57;67.91
10127;BME280;13080;42.608;23.362;2024-03-25T09:19:56;152698.13;;;6.31;69.17
10127;BME280;13080;42.608;23.362;2024-03-25T09:22:22;152713.69;;;6.37;67.25
10127;BME280;13080;42.608;23.362;2024-03-25T09:24:48;152664.47;;;6.18;68.58
10127;BME280;13080;42.608;23.362;2024-03-25T09:27:14;152628.25;;;6.03;69.94
10127;BME280;13080;42.608;23.362;2024-03-25T09:29:40;152637.28;;;6.07;68.75
10127;BME280;13080;42.608;23.362;2024-03-25T09:32:08;152700.72;;;6.32;69.42
10127;BME280;13080;42.608;23.362;2024-03-25T09:34:34;152717.53;;;6.39;68.58
10127;BME280;13080;42.608;23.362;2024-03-25T09:36:59;152629.53;;;6.04;68.26
10127;BME280;13080;42.608;23.362;2024-03-25T09:39:25;152624.38;;;6.02;67.41
10127;BME280;13080;42.608;23.362;2024-03-25T09:41:51;152639.91;;;6.08;67.15
10127;BME280;13080;42.608;23.362;2024-03-25T09:44:21;152647.66;;;6.11;68.34
10127;BME280;13080;42.608;23.362;2024-03-25T09:46:47;152624.38;;;6.02;69.15
10127;BME280;13080;42.608;23.362;2024-03-25T09:49:14;152597.13;;;5.91;69.07
10127;BME280;13080;42.608;23.362;2024-03-25T09:51:40;152624.38;;;6.02;68.36
10127;BME280;13080;42.608;23.362;2024-03-25T09:54:06;152708.50;;;6.35;69.12
10127;BME280;13080;42.608;23.362;2024-03-25T09:56:32;152774.56;;;6.61;68.07
10127;BME280;13080;42.608;23.362;2024-03-25T09:58:59;152800.41;;;6.72;67.93
10127;BME280;13080;42.608;23.362;2024-03-25T10:01:26;152787.47;;;6.66;65.65
10127;BME280;13080;42.608;23.362;2024-03-25T10:03:51;152819.88;;;6.79;67.17
10127;BME280;13080;42.608;23.362;2024-03-25T10:06:18;152749.91;;;6.52;66.68
10127;BME280;13080;42.608;23.362;2024-03-25T10:08:45;152689.06;;;6.28;67.47
10127;BME280;13080;42.608;23.362;2024-03-25T10:11:11;152760.28;;;6.56;65.88
10127;BME280;13080;42.608;23.362;2024-03-25T10:13:36;152822.44;;;6.80;68.52
10127;BME280;13080;42.608;23.362;2024-03-25T10:16:03;152888.50;;;7.06;66.98
10127;BME280;13080;42.608;23.362;2024-03-25T10:18:29;152968.81;;;7.38;68.49
10127;BME280;13080;42.608;23.362;2024-03-25T10:20:54;153051.72;;;7.71;66.07
10127;BME280;13080;42.608;23.362;2024-03-25T10:23:22;153104.88;;;7.92;63.64
10127;BME280;13080;42.608;23.362;2024-03-25T10:25:48;153110.06;;;7.94;63.84
10127;BME280;13080;42.608;23.362;2024-03-25T10:28:14;153121.72;;;7.99;62.05
10127;BME280;13080;42.608;23.362;2024-03-25T10:30:41;152997.31;;;7.49;60.61
10127;BME280;13080;42.608;23.362;2024-03-25T10:33:07;152997.31;;;7.49;63.92
10127;BME280;13080;42.608;23.362;2024-03-25T10:35:34;153068.56;;;7.78;61.43
10127;BME280;13080;42.608;23.362;2024-03-25T10:38:01;152993.41;;;7.48;62.33
10127;BME280;13080;42.608;23.362;2024-03-25T10:40:29;152957.16;;;7.34;61.63
10127;BME280;13080;42.608;23.362;2024-03-25T10:43:01;152958.44;;;7.34;60.65
10127;BME280;13080;42.608;23.362;2024-03-25T10:45:29;152985.66;;;7.45;60.96
10127;BME280;13080;42.608;23.362;2024-03-25T10:47:56;153037.47;;;7.65;62.08
10127;BME280;13080;42.608;23.362;2024-03-25T10:50:26;153056.91;;;7.73;59.42
10127;BME280;13080;42.608;23.362;2024-03-25T10:52:53;153085.41;;;7.84;59.85
10127;BME280;13080;42.608;23.362;2024-03-25T10:55:20;152993.41;;;7.48;56.54
10127;BME280;13080;42.608;23.362;2024-03-25T10:57:48;153005.06;;;7.53;56.59
10127;BME280;13080;42.608;23.362;2024-03-25T11:00:15;152977.84;;;7.42;56.46
10127;BME280;13080;42.608;23.362;2024-03-25T11:02:42;153041.38;;;7.67;57.56
10127;BME280;13080;42.608;23.362;2024-03-25T11:05:09;152967.53;;;7.38;56.48
10127;BME280;13080;42.608;23.362;2024-03-25T11:07:36;152918.28;;;7.18;56.86
10127;BME280;13080;42.608;23.362;2024-03-25T11:10:03;152896.25;;;7.10;55.62
10127;BME280;13080;42.608;23.362;2024-03-25T11:12:38;153015.44;;;7.57;57.80
10127;BME280;13080;42.608;23.362;2024-03-25T11:15:06;153113.94;;;7.96;56.75
10127;BME280;13080;42.608;23.362;2024-03-25T11:17:33;153023.22;;;7.60;53.75
10127;BME280;13080;42.608;23.362;2024-03-25T11:20:12;152994.69;;;7.48;56.16
10127;BME280;13080;42.608;23.362;2024-03-25T11:22:47;153040.06;;;7.66;57.76
10127;BME280;13080;42.608;23.362;2024-03-25T11:25:14;153036.19;;;7.65;56.06
10127;BME280;13080;42.608;23.362;2024-03-25T11:27:39;153056.91;;;7.73;57.54
10127;BME280;13080;42.608;23.362;2024-03-25T11:30:10;152979.19;;;7.42;56.62
10127;BME280;13080;42.608;23.362;2024-03-25T11:32:46;153024.53;;;7.60;58.27
10127;BME280;13080;42.608;23.362;2024-03-25T11:35:12;152985.66;;;7.45;58.37
10127;BME280;13080;42.608;23.362;2024-03-25T11:37:40;152953.25;;;7.32;57.61
10127;BME280;13080;42.608;23.362;2024-03-25T11:40:07;152993.41;;;7.48;59.25
10127;BME280;13080;42.608;23.362;2024-03-25T11:42:33;152819.88;;;6.79;62.93
10127;BME280;13080;42.608;23.362;2024-03-25T11:44:59;152814.69;;;6.77;62.33
10127;BME280;13080;42.608;23.362;2024-03-25T11:47:26;152781.00;;;6.64;60.23
10127;BME280;13080;42.608;23.362;2024-03-25T11:49:53;152711.06;;;6.36;62.17
10127;BME280;13080;42.608;23.362;2024-03-25T11:52:18;152686.50;;;6.27;62.43
10127;BME280;13080;42.608;23.362;2024-03-25T11:54:44;152702.03;;;6.33;61.47
10127;BME280;13080;42.608;23.362;2024-03-25T11:57:10;152725.34;;;6.42;63.60
10127;BME280;13080;42.608;23.362;2024-03-25T11:59:36;152778.41;;;6.63;62.60
10127;BME280;13080;42.608;23.362;2024-03-25T12:02:05;152830.19;;;6.83;60.57
10127;BME280;13080;42.608;23.362;2024-03-25T12:04:32;152806.88;;;6.74;61.79
10127;BME280;13080;42.608;23.362;2024-03-25T12:06:58;152801.69;;;6.72;61.63
10127;BME280;13080;42.608;23.362;2024-03-25T12:09:24;152801.69;;;6.72;62.93
10127;BME280;13080;42.608;23.362;2024-03-25T12:12:08;152849.66;;;6.91;64.56
10127;BME280;13080;42.608;23.362;2024-03-25T12:14:33;152909.19;;;7.15;63.14
10127;BME280;13080;42.608;23.362;2024-03-25T12:17:01;152900.16;;;7.11;60.27
10127;BME280;13080;42.608;23.362;2024-03-25T12:19:27;152928.66;;;7.22;60.73
10127;BME280;13080;42.608;23.362;2024-03-25T12:22:00;152968.81;;;7.38;60.29
10127;BME280;13080;42.608;23.362;2024-03-25T12:24:26;153011.53;;;7.55;59.66
10127;BME280;13080;42.608;23.362;2024-03-25T12:26:52;152885.88;;;7.05;56.97
10127;BME280;13080;42.608;23.362;2024-03-25T12:29:18;152822.44;;;6.80;59.24
10127;BME280;13080;42.608;23.362;2024-03-25T12:31:54;152852.22;;;6.92;60.24
10127;BME280;13080;42.608;23.362;2024-03-25T12:34:20;152761.56;;;6.56;59.92
10127;BME280;13080;42.608;23.362;2024-03-25T12:36:46;152769.38;;;6.59;60.67
10127;BME280;13080;42.608;23.362;2024-03-25T12:39:17;152796.53;;;6.70;60.63
10127;BME280;13080;42.608;23.362;2024-03-25T12:41:43;152806.88;;;6.74;61.10
10127;BME280;13080;42.608;23.362;2024-03-25T12:44:08;152808.16;;;6.75;61.32